Time;durP1;ratioP1;P1;durP2;ratioP2;P2;SDS_P1;SDS_P2;PMS_P1;PMS_P2;Temp;Humidity;BMP_temperature;BMP_pressure;BME280_temperature;BME280_humidity;BME280_pressure;Samples;Min_cycle;Max_cycle;Signal;HPM_P1;HPM_P2
2022/11/03 00:00:00;;;;;;;16.27;5.20;;;;;;;8.35;95.89;101001.19;4957676;29;20071;-79
2022/11/03 00:02:26;;;;;;;17.23;6.00;;;;;;;8.42;96.02;101007.53;4944166;29;20051;-79
2022/11/03 00:04:53;;;;;;;14.15;5.30;;;;;;;8.43;96.00;100990.94;4945310;29;20079;-79
2022/11/03 00:07:21;;;;;;;17.08;5.03;;;;;;;8.46;96.20;100979.41;4944944;29;20511;-80
2022/11/03 00:09:48;;;;;;;14.00;5.20;;;;;;;8.43;96.05;100975.28;4943444;29;20051;-79
2022/11/03 00:12:15;;;;;;;13.07;4.75;;;;;;;8.50;95.93;100978.19;4945185;29;20055;-80
2022/11/03 00:14:41;;;;;;;16.70;4.72;;;;;;;8.53;96.07;100977.91;4945556;29;20076;-80
2022/11/03 00:17:09;;;;;;;17.98;5.03;;;;;;;8.60;95.49;100973.78;4943005;29;20500;-80
2022/11/03 00:19:36;;;;;;;17.42;4.70;;;;;;;8.64;95.52;100964.75;4942082;29;20798;-80
2022/11/03 00:22:03;;;;;;;19.05;4.80;;;;;;;8.68;95.50;100971.34;4943488;29;20135;-79
2022/11/03 00:24:29;;;;;;;14.93;5.05;;;;;;;8.75;95.25;100977.66;4944354;29;20075;-80
2022/11/03 00:26:56;;;;;;;13.48;4.70;;;;;;;8.82;95.37;100973.56;4943146;29;20575;-80
2022/11/03 00:29:23;;;;;;;11.02;4.80;;;;;;;8.77;95.21;100970.53;4955375;29;20079;-81
2022/11/03 00:31:50;;;;;;;20.40;5.05;;;;;;;8.84;94.92;100970.81;4948219;29;20515;-81
2022/11/03 00:34:18;;;;;;;19.38;5.05;;;;;;;8.82;95.22;100963.13;4942958;29;20082;-80
2022/11/03 00:36:45;;;;;;;15.90;4.75;;;;;;;8.83;95.14;100958.72;4943115;29;20121;-80
2022/11/03 00:39:11;;;;;;;17.08;5.45;;;;;;;8.86;95.47;100954.06;4942627;29;20085;-81
2022/11/03 00:41:38;;;;;;;16.48;4.63;;;;;;;8.84;95.46;100950.75;4947962;29;20118;-81
2022/11/03 00:44:05;;;;;;;12.93;4.65;;;;;;;8.93;95.68;100960.38;4947828;29;20082;-81
2022/11/03 00:46:33;;;;;;;16.00;4.68;;;;;;;8.95;95.49;100953.25;4946073;29;20083;-81
2022/11/03 00:49:00;;;;;;;17.17;4.95;;;;;;;8.98;95.22;100939.06;4946149;29;20087;-80
2022/11/03 00:51:29;;;;;;;11.85;4.45;;;;;;;8.93;95.34;100939.50;4947148;29;20052;-80
2022/11/03 00:53:57;;;;;;;15.32;4.40;;;;;;;9.01;95.22;100940.56;4947162;29;20123;-80
2022/11/03 00:56:26;;;;;;;14.70;4.75;;;;;;;9.11;95.44;100946.63;4940991;29;20228;-78
2022/11/03 00:58:54;;;;;;;13.27;5.25;;;;;;;9.16;95.50;100936.59;4937737;29;20094;-80
2022/11/03 01:01:23;;;;;;;15.27;4.68;;;;;;;9.14;95.42;100931.50;4944945;29;20051;-80
2022/11/03 01:06:53;;;;;;;13.68;4.75;;;;;;;9.18;95.24;100934.66;4944933;29;20157;-80
2022/11/03 01:09:20;;;;;;;;;;;;;;;9.20;95.61;100930.13;4945617;29;20075;-81
2022/11/03 01:11:53;;;;;;;16.17;4.70;;;;;;;9.17;95.75;100928.63;4945092;29;19923;-81
2022/11/03 01:14:20;;;;;;;16.13;4.68;;;;;;;9.18;95.45;100927.66;4944481;29;20083;-81
2022/11/03 01:16:46;;;;;;;13.38;5.03;;;;;;;9.11;95.79;100931.78;4944541;29;20083;-81
2022/11/03 01:19:13;;;;;;;16.02;5.03;;;;;;;9.12;96.19;100932.59;4966003;23;20174;-81
2022/11/03 01:21:41;;;;;;;16.30;5.25;;;;;;;9.13;95.96;100923.81;4957647;29;20131;-80
2022/11/03 01:24:07;;;;;;;20.88;5.00;;;;;;;9.18;96.26;100929.44;4957750;29;20076;-80
2022/11/03 01:26:34;;;;;;;15.55;5.25;;;;;;;9.12;96.34;100916.94;4941285;29;20087;-77
2022/11/03 01:29:01;;;;;;;15.45;4.90;;;;;;;9.15;96.56;100916.66;4940562;29;20126;-79
2022/11/03 01:31:29;;;;;;;18.25;5.25;;;;;;;9.20;96.50;100904.00;4944675;29;20065;-80
2022/11/03 01:33:57;;;;;;;13.48;4.43;;;;;;;9.12;96.47;100898.66;4945825;29;20044;-81
2022/11/03 01:36:24;;;;;;;20.77;4.95;;;;;;;9.13;97.05;100903.75;4947229;29;20086;-78
2022/11/03 01:38:53;;;;;;;15.32;4.80;;;;;;;9.09;96.63;100901.56;4945707;29;20079;-79
2022/11/03 01:41:22;;;;;;;15.23;5.50;;;;;;;9.11;97.17;100903.06;4965010;29;20091;-80
2022/11/03 01:43:51;;;;;;;19.23;5.53;;;;;;;9.09;97.00;100889.31;4966674;29;20084;-78
2022/11/03 01:46:23;;;;;;;15.95;5.28;;;;;;;9.10;97.50;100885.75;4960683;29;20083;-78
2022/11/03 01:49:01;;;;;;;19.30;5.47;;;;;;;9.10;97.36;100885.75;4947160;29;20537;-79
2022/11/03 01:51:31;;;;;;;22.00;5.25;;;;;;;9.09;97.47;100873.66;4947896;29;20110;-79
2022/11/03 01:54:03;;;;;;;15.32;5.55;;;;;;;9.11;97.62;100876.13;4946542;29;20131;-80
2022/11/03 01:56:34;;;;;;;15.20;5.22;;;;;;;9.11;98.01;100874.34;4946810;29;20058;-79
2022/11/03 01:59:01;;;;;;;17.08;5.38;;;;;;;9.11;97.81;100873.53;4943555;29;20047;-79
2022/11/03 02:01:29;;;;;;;19.60;5.95;;;;;;;9.06;98.15;100870.50;4953457;29;20055;-80
2022/11/03 02:04:02;;;;;;;13.15;4.93;;;;;;;9.19;98.22;100866.63;4944824;29;20047;-79
2022/11/03 02:06:30;;;;;;;16.20;5.18;;;;;;;9.15;97.77;100864.44;4944638;29;20110;-78
2022/11/03 02:09:02;;;;;;;20.48;5.68;;;;;;;9.15;98.26;100864.44;4942870;29;20051;-79
2022/11/03 02:14:14;;;;;;;11.82;5.55;;;;;;;9.10;98.53;100862.25;4962379;29;20054;-79
2022/11/03 02:16:44;;;;;;;17.08;5.28;;;;;;;9.11;98.60;100855.25;4963339;29;20083;-78
2022/11/03 02:19:25;;;;;;;15.13;4.93;;;;;;;9.06;99.03;100849.63;4963356;29;20490;-79
2022/11/03 02:21:59;;;;;;;15.63;5.35;;;;;;;9.03;99.05;100835.06;4962471;29;20475;-79
2022/11/03 02:24:36;;;;;;;16.55;4.80;;;;;;;8.98;99.35;100843.31;4959643;29;20549;-79
2022/11/03 02:27:04;;;;;;;17.70;5.53;;;;;;;8.99;99.41;100831.09;4959709;29;20079;-80
2022/11/03 02:29:30;;;;;;;18.38;5.07;;;;;;;9.01;99.85;100841.38;4954914;29;20083;-79
2022/11/03 02:32:04;;;;;;;16.33;5.28;;;;;;;9.01;99.77;100836.16;4958502;29;20078;-79
2022/11/03 02:34:39;;;;;;;12.95;5.65;;;;;;;9.07;99.92;100836.44;4962270;29;20130;-79
2022/11/03 02:37:10;;;;;;;16.10;5.60;;;;;;;9.06;99.97;100826.13;4959819;29;20051;-80
2022/11/03 02:39:41;;;;;;;15.65;5.47;;;;;;;9.07;99.78;100818.16;4955031;29;20055;-80
2022/11/03 02:42:11;;;;;;;20.50;6.32;;;;;;;9.12;100.00;100818.56;4942056;29;20091;-79
2022/11/03 02:44:39;;;;;;;14.80;5.40;;;;;;;9.12;100.00;100802.91;4945141;29;20048;-79
2022/11/03 02:47:10;;;;;;;12.18;5.38;;;;;;;9.13;99.87;100801.09;4962131;29;20093;-80
2022/11/03 02:49:39;;;;;;;14.45;5.88;;;;;;;9.11;100.00;100805.66;4962605;29;20067;-80
2022/11/03 02:52:07;;;;;;;14.48;5.63;;;;;;;9.11;100.00;100805.66;4948471;29;20115;-79
2022/11/03 02:54:38;;;;;;;15.95;6.00;;;;;;;9.08;100.00;100798.91;4947970;29;20047;-79
2022/11/03 02:57:13;;;;;;;16.83;6.05;;;;;;;9.13;100.00;100795.88;4946734;29;20057;-79
2022/11/03 02:59:46;;;;;;;16.38;5.72;;;;;;;9.08;100.00;100792.88;4949278;29;20083;-79
2022/11/03 03:02:18;;;;;;;18.35;6.13;;;;;;;9.08;100.00;100792.88;4949276;29;20055;-80
2022/11/03 03:04:51;;;;;;;16.00;5.67;;;;;;;9.10;100.00;100783.13;4948063;29;20058;-79
2022/11/03 03:07:23;;;;;;;20.23;6.78;;;;;;;9.10;100.00;100776.13;4947157;29;20317;-79
2022/11/03 03:09:58;;;;;;;21.60;6.32;;;;;;;9.08;100.00;100769.38;4953193;29;20074;-79
2022/11/03 03:12:27;;;;;;;15.15;6.80;;;;;;;9.09;100.00;100766.63;4966141;29;20135;-79
2022/11/03 03:14:56;;;;;;;18.23;6.60;;;;;;;9.09;100.00;100761.41;4966988;29;20051;-79
2022/11/03 03:17:25;;;;;;;16.75;6.28;;;;;;;9.06;100.00;100766.09;4947373;29;20427;-79
2022/11/03 03:19:59;;;;;;;11.70;5.95;;;;;;;9.08;100.00;100759.75;4952126;29;20048;-79
2022/11/03 03:22:32;;;;;;;18.65;6.20;;;;;;;9.11;100.00;100758.66;4966429;29;20083;-80
2022/11/03 03:25:08;;;;;;;17.33;5.75;;;;;;;9.08;100.00;100751.13;4965110;29;20063;-79
2022/11/03 03:27:41;;;;;;;15.73;5.82;;;;;;;9.15;100.00;100754.81;4965313;29;20470;-78
2022/11/03 03:30:09;;;;;;;16.85;5.78;;;;;;;9.11;100.00;100753.44;4955970;29;20426;-79
2022/11/03 03:32:40;;;;;;;16.27;5.85;;;;;;;9.07;100.00;100762.53;4965422;29;20466;-78
2022/11/03 03:35:13;;;;;;;12.52;5.30;;;;;;;9.06;100.00;100755.66;4965965;29;20051;-79
2022/11/03 03:37:42;;;;;;;14.25;4.55;;;;;;;9.10;100.00;100751.78;4966297;29;20043;-80
2022/11/03 03:40:14;;;;;;;15.02;5.15;;;;;;;9.11;100.00;100748.22;4957587;29;20055;-80
2022/11/03 03:42:44;;;;;;;17.23;5.47;;;;;;;9.14;100.00;100733.09;4952654;29;20059;-79
2022/11/03 03:45:12;;;;;;;13.27;5.00;;;;;;;9.11;100.00;100743.81;4954801;29;20044;-80
2022/11/03 03:47:40;;;;;;;17.02;5.60;;;;;;;9.15;100.00;100733.91;4968329;29;20098;-80
2022/11/03 03:50:07;;;;;;;21.52;5.80;;;;;;;9.18;100.00;100731.00;4953069;29;20099;-79
2022/11/03 03:52:35;;;;;;;15.27;5.40;;;;;;;9.20;100.00;100734.31;4953638;29;20063;-79
2022/11/03 03:55:02;;;;;;;17.05;5.63;;;;;;;9.22;100.00;100724.53;4949930;29;20044;-80
2022/11/03 03:57:31;;;;;;;17.35;5.53;;;;;;;9.23;100.00;100724.41;4950530;29;20159;-79
2022/11/03 03:59:59;;;;;;;14.80;5.00;;;;;;;9.21;100.00;100720.28;4955361;29;20100;-79
2022/11/03 04:02:26;;;;;;;13.38;5.28;;;;;;;9.18;100.00;100710.94;4974293;29;20051;-79
2022/11/03 04:04:52;;;;;;;14.55;5.35;;;;;;;9.20;100.00;100714.25;4971459;29;20067;-79
2022/11/03 04:10:03;;;;;;;18.42;5.60;;;;;;;9.21;100.00;100707.22;4949619;29;20146;-80
2022/11/03 04:23:28;;;;;;;13.75;5.05;;;;;;;9.17;100.00;100708.50;4948591;29;20082;-80
2022/11/03 04:25:56;;;;;;;10.98;5.07;;;;;;;9.13;100.00;100699.28;4966598;29;20043;-79
2022/11/03 04:28:25;;;;;;;16.48;5.10;;;;;;;9.15;100.00;100697.38;4965546;29;20082;-79
2022/11/03 04:30:56;;;;;;;20.08;6.45;;;;;;;9.12;100.00;100698.47;4959885;29;20071;-77
2022/11/03 04:33:23;;;;;;;16.25;5.15;;;;;;;9.09;100.00;100696.16;4946142;29;20058;-79
2022/11/03 04:35:49;;;;;;;14.77;6.78;;;;;;;9.06;100.00;100690.41;4947183;29;20213;-79
2022/11/03 04:38:22;;;;;;;14.25;5.13;;;;;;;9.02;100.00;100687.25;4946336;29;20051;-80
2022/11/03 04:40:53;;;;;;;18.88;5.45;;;;;;;9.03;100.00;100677.63;4963372;29;20059;-80
2022/11/03 04:43:22;;;;;;;12.75;4.95;;;;;;;9.01;100.00;100683.00;4964698;29;20055;-80
2022/11/03 04:45:49;;;;;;;18.60;5.30;;;;;;;8.98;100.00;100685.91;4963028;29;20047;-80
2022/11/03 04:48:21;;;;;;;20.27;5.53;;;;;;;9.08;100.00;100672.81;4963019;29;20106;-79
2022/11/03 04:50:49;;;;;;;12.80;4.50;;;;;;;9.12;100.00;100671.56;4950137;29;20164;-79
2022/11/03 04:53:18;;;;;;;15.80;5.60;;;;;;;9.11;100.00;100670.72;4945163;29;20079;-79
2022/11/03 04:55:46;;;;;;;13.30;5.40;;;;;;;9.21;100.00;100662.84;4958611;29;20163;-81
2022/11/03 04:58:19;;;;;;;14.65;5.38;;;;;;;9.27;100.00;100668.31;4962990;29;20122;-81
2022/11/03 05:00:45;;;;;;;;;;;;;;;9.30;100.00;100656.75;4959621;29;20048;-81
2022/11/03 05:03:16;;;;;;;14.40;5.85;;;;;;;9.34;100.00;100654.66;4944551;29;19991;-80
2022/11/03 05:05:44;;;;;;;16.27;5.70;;;;;;;9.35;100.00;100646.69;4959008;28;20096;-80
2022/11/03 05:08:12;;;;;;;15.23;5.43;;;;;;;9.37;100.00;100636.91;4966228;29;20090;-81
2022/11/03 05:10:39;;;;;;;12.65;4.90;;;;;;;9.43;100.00;100640.72;4968684;29;20478;-80
2022/11/03 05:13:15;;;;;;;13.63;5.30;;;;;;;9.43;100.00;100631.09;4968074;29;20055;-80
2022/11/03 05:15:43;;;;;;;13.55;5.70;;;;;;;9.45;100.00;100618.69;4956879;29;20039;-80
2022/11/03 05:18:17;;;;;;;15.60;5.72;;;;;;;9.33;100.00;100599.00;4949142;29;20166;-79
2022/11/03 05:20:49;;;;;;;16.48;5.32;;;;;;;9.47;100.00;100616.75;4950470;29;20063;-79
2022/11/03 05:23:16;;;;;;;15.82;5.55;;;;;;;9.49;100.00;100596.53;4949070;29;20054;-79
2022/11/03 05:25:45;;;;;;;13.88;5.47;;;;;;;9.46;100.00;100607.28;4966795;29;20123;-79
2022/11/03 05:28:25;;;;;;;14.75;5.82;;;;;;;9.52;100.00;100604.06;4968223;29;20061;-79
2022/11/03 05:30:53;;;;;;;15.77;5.45;;;;;;;9.48;100.00;100607.13;4960263;29;20067;-79
2022/11/03 05:33:26;;;;;;;15.60;5.38;;;;;;;9.54;100.00;100598.69;4946702;29;20522;-80
2022/11/03 05:35:54;;;;;;;16.02;5.60;;;;;;;9.53;100.00;100603.09;4946644;29;20058;-80
2022/11/03 05:38:22;;;;;;;13.30;5.32;;;;;;;9.49;100.00;100606.97;4945642;29;20082;-80
2022/11/03 05:40:54;;;;;;;14.63;5.53;;;;;;;9.53;100.00;100608.31;4963413;29;20094;-80
2022/11/03 05:43:21;;;;;;;15.02;5.10;;;;;;;9.57;100.00;100609.66;4965313;29;20131;-78
2022/11/03 05:45:50;;;;;;;19.63;5.63;;;;;;;9.58;100.00;100611.31;4964537;29;20086;-79
2022/11/03 05:48:22;;;;;;;16.27;5.10;;;;;;;9.55;100.00;100597.72;4965462;29;20047;-79
2022/11/03 05:50:49;;;;;;;13.43;5.45;;;;;;;9.58;100.00;100600.84;4967755;29;20069;-80
2022/11/03 05:53:30;;;;;;;16.60;5.25;;;;;;;9.61;100.00;100594.50;4966664;29;20059;-78
2022/11/03 05:55:59;;;;;;;14.13;5.35;;;;;;;9.59;100.00;100594.66;4950872;29;20082;-80
2022/11/03 05:58:30;;;;;;;17.13;5.78;;;;;;;9.60;100.00;100578.03;4947614;29;20058;-78
2022/11/03 06:00:58;;;;;;;16.88;5.72;;;;;;;9.62;100.00;100570.84;4949390;29;20095;-79
2022/11/03 06:03:28;;;;;;;13.98;5.68;;;;;;;9.62;100.00;100570.84;4948505;29;20051;-79
2022/11/03 06:05:56;;;;;;;12.40;5.50;;;;;;;9.61;100.00;100558.75;4965309;29;20055;-79
2022/11/03 06:08:30;;;;;;;16.42;5.47;;;;;;;9.67;100.00;100567.78;4966506;29;20148;-78
2022/11/03 06:10:58;;;;;;;12.57;5.07;;;;;;;9.61;100.00;100558.75;4966938;29;20086;-80
2022/11/03 06:13:29;;;;;;;15.60;5.85;;;;;;;9.63;100.00;100562.03;4967472;29;20119;-79
2022/11/03 06:15:59;;;;;;;15.85;6.20;;;;;;;9.61;100.00;100548.31;4959325;29;20130;-80
2022/11/03 06:18:31;;;;;;;17.63;5.60;;;;;;;9.57;100.00;100539.13;4966418;28;20074;-80
2022/11/03 06:21:02;;;;;;;20.77;5.90;;;;;;;9.65;100.00;100539.19;4968065;29;20047;-79
2022/11/03 06:23:33;;;;;;;10.23;5.43;;;;;;;9.64;100.00;100548.00;4967614;29;20479;-80
2022/11/03 06:26:02;;;;;;;34.08;16.90;;;;;;;9.62;100.00;100549.13;4947133;29;20052;-79
2022/11/03 06:28:33;;;;;;;20.88;5.65;;;;;;;9.64;100.00;100542.78;4946474;29;20056;-79
2022/11/03 06:31:00;;;;;;;15.43;5.78;;;;;;;9.64;100.00;100542.78;4966111;29;20047;-79
2022/11/03 06:33:29;;;;;;;17.45;5.43;;;;;;;9.71;100.00;100534.34;4966151;29;20043;-80
2022/11/03 06:36:00;;;;;;;18.15;5.78;;;;;;;9.71;100.00;100518.66;4967361;29;20102;-79
2022/11/03 06:38:29;;;;;;;16.25;5.72;;;;;;;9.72;100.00;100528.97;4966883;29;20051;-79
2022/11/03 06:40:58;;;;;;;16.92;5.53;;;;;;;9.79;100.00;100508.28;4950958;29;20047;-78
2022/11/03 06:43:30;;;;;;;17.75;5.63;;;;;;;9.81;100.00;100507.16;4952140;29;20412;-80
2022/11/03 06:46:01;;;;;;;17.20;5.13;;;;;;;9.86;100.00;100502.28;4956027;29;20059;-81
2022/11/03 06:48:29;;;;;;;14.77;6.15;;;;;;;9.96;100.00;100499.53;4949294;29;20056;-81
2022/11/03 06:50:58;;;;;;;18.63;5.65;;;;;;;9.97;100.00;100495.94;4946528;29;20185;-79
2022/11/03 06:53:27;;;;;;;16.75;5.20;;;;;;;10.00;100.00;100490.41;4947529;29;20562;-80
2022/11/03 06:55:55;;;;;;;15.15;5.57;;;;;;;9.99;100.00;100488.75;4967859;29;20051;-81
2022/11/03 06:58:30;;;;;;;16.88;5.50;;;;;;;9.98;100.00;100495.78;4965655;29;20051;-80
2022/11/03 07:00:59;;;;;;;16.20;7.50;;;;;;;9.95;100.00;100500.50;4964940;29;20076;-80
2022/11/03 07:03:29;;;;;;;15.32;5.38;;;;;;;9.89;100.00;100490.69;4957341;29;20079;-80
2022/11/03 07:05:58;;;;;;;18.67;6.32;;;;;;;9.88;100.00;100502.13;4970117;29;20061;-79
2022/11/03 07:08:29;;;;;;;12.35;5.35;;;;;;;9.81;100.00;100501.09;4971389;29;20051;-79
2022/11/03 07:11:03;;;;;;;12.20;5.88;;;;;;;9.91;100.00;100507.03;4974289;29;20047;-80
2022/11/03 07:13:34;;;;;;;16.75;5.53;;;;;;;9.95;100.00;100498.72;4959127;29;20043;-77
2022/11/03 07:16:01;;;;;;;18.58;6.07;;;;;;;10.03;100.00;100503.16;4956414;29;20314;-77
2022/11/03 07:18:34;;;;;;;16.23;5.35;;;;;;;10.06;100.00;100492.41;4971783;23;20081;-82
2022/11/03 07:21:05;;;;;;;14.82;5.53;;;;;;;10.08;100.00;100473.94;4960482;29;20150;-80
2022/11/03 07:23:32;;;;;;;16.40;5.00;;;;;;;10.32;99.78;100481.94;4961731;28;20047;-80
2022/11/03 07:26:01;;;;;;;14.00;5.32;;;;;;;10.78;98.57;100479.78;4963925;29;20043;-82
2022/11/03 07:28:34;;;;;;;17.55;5.90;;;;;;;11.18;96.43;100484.22;4961840;29;20060;-84
2022/11/03 07:31:06;;;;;;;15.02;5.07;;;;;;;11.54;94.45;100482.88;4944127;29;20091;-83
2022/11/03 07:33:33;;;;;;;17.73;7.63;;;;;;;11.72;92.53;100480.09;4943480;29;20051;-83
2022/11/03 07:36:00;;;;;;;9.68;4.57;;;;;;;11.94;91.56;100462.84;4940705;29;20059;-80
2022/11/03 07:38:29;;;;;;;14.10;4.82;;;;;;;12.45;89.09;100490.34;4940280;29;20086;-81
2022/11/03 07:40:57;;;;;;;17.33;5.05;;;;;;;12.50;88.91;100487.19;4940445;29;20115;-81
2022/11/03 07:43:29;;;;;;;14.60;5.65;;;;;;;13.06;87.47;100475.53;4942075;29;20087;-82
2022/11/03 07:46:02;;;;;;;12.07;4.97;;;;;;;12.90;86.64;100470.38;4941395;29;20123;-81
2022/11/03 07:48:34;;;;;;;15.55;5.30;;;;;;;13.11;86.10;100456.63;4941685;29;20134;-80
2022/11/03 07:51:15;;;;;;;16.75;5.53;;;;;;;12.53;87.75;100464.06;4941240;29;20428;-82
2022/11/03 07:53:44;;;;;;;12.98;5.57;;;;;;;12.29;88.44;100436.13;4941441;29;20068;-82
2022/11/03 07:56:21;;;;;;;13.82;5.30;;;;;;;12.19;89.23;100461.78;4940966;29;20062;-81
2022/11/03 07:58:51;;;;;;;17.90;5.35;;;;;;;12.20;90.30;100447.66;4940821;29;20503;-82
2022/11/03 08:01:26;;;;;;;11.25;5.07;;;;;;;12.12;90.23;100455.56;4941478;29;20058;-82
2022/11/03 08:04:02;;;;;;;14.77;5.57;;;;;;;12.06;90.64;100451.00;4941422;29;20131;-83
2022/11/03 08:06:29;;;;;;;14.35;6.10;;;;;;;11.85;91.11;100437.63;4940790;29;20142;-81
2022/11/03 08:08:56;;;;;;;13.60;5.53;;;;;;;11.82;91.35;100430.09;4940961;29;20055;-82
2022/11/03 08:11:29;;;;;;;9.65;5.43;;;;;;;11.83;91.86;100439.59;4941025;29;20051;-82
2022/11/03 08:13:57;;;;;;;14.65;5.32;;;;;;;11.88;91.60;100432.88;4940536;29;20056;-82
2022/11/03 08:16:27;;;;;;;17.45;5.80;;;;;;;11.88;91.78;100432.03;4939919;29;20044;-80
2022/11/03 08:18:54;;;;;;;14.38;5.63;;;;;;;11.85;92.02;100433.19;4940177;29;20142;-82
2022/11/03 08:21:20;;;;;;;17.20;6.18;;;;;;;11.93;92.20;100425.31;4939951;29;20086;-81
2022/11/03 08:23:53;;;;;;;8.88;5.50;;;;;;;11.92;91.84;100412.38;4939664;29;20063;-82
2022/11/03 08:26:20;;;;;;;18.52;6.38;;;;;;;11.85;91.98;100390.44;4940533;29;20103;-81
2022/11/03 08:28:51;;;;;;;17.10;6.15;;;;;;;11.86;92.02;100392.88;4938700;29;20091;-82
2022/11/03 08:31:18;;;;;;;18.88;6.22;;;;;;;11.98;92.19;100400.38;4940287;29;20086;-82
2022/11/03 08:33:46;;;;;;;16.40;6.70;;;;;;;12.16;91.70;100409.66;4939824;29;20055;-81
2022/11/03 08:36:13;;;;;;;12.68;5.85;;;;;;;12.13;91.79;100410.00;4939855;29;20138;-81
2022/11/03 08:38:42;;;;;;;12.85;6.10;;;;;;;12.27;91.60;100413.69;4938570;29;20079;-83
2022/11/03 08:41:12;;;;;;;15.93;6.47;;;;;;;12.37;91.16;100406.41;4938340;29;20091;-80
2022/11/03 08:43:41;;;;;;;20.15;6.45;;;;;;;12.50;90.53;100392.72;4938836;29;20118;-83
2022/11/03 08:46:08;;;;;;;17.88;6.45;;;;;;;12.43;89.72;100363.72;4939214;29;20058;-83
2022/11/03 08:48:35;;;;;;;13.75;6.03;;;;;;;12.57;89.33;100381.34;4938167;29;20059;-83
2022/11/03 08:51:07;;;;;;;11.88;4.88;;;;;;;12.50;88.98;100356.81;4939641;29;20066;-84
2022/11/03 08:53:34;;;;;;;23.35;5.60;;;;;;;12.57;88.23;100338.53;4939534;29;20066;-83
2022/11/03 08:56:00;;;;;;;18.30;6.03;;;;;;;12.81;87.89;100356.72;4939214;29;20604;-82
2022/11/03 08:58:27;;;;;;;17.98;6.15;;;;;;;12.92;87.70;100358.91;4939404;29;20090;-83
2022/11/03 09:00:54;;;;;;;16.23;5.53;;;;;;;13.08;87.14;100370.28;4939335;29;20055;-82
2022/11/03 09:03:24;;;;;;;15.93;5.45;;;;;;;13.14;86.72;100366.94;4938974;29;20067;-82
2022/11/03 09:05:53;;;;;;;15.35;5.57;;;;;;;13.16;86.08;100351.84;4939619;29;20077;-81
2022/11/03 09:08:21;;;;;;;19.08;5.60;;;;;;;13.31;85.73;100355.28;4939274;29;20060;-82
2022/11/03 09:10:49;;;;;;;19.83;6.03;;;;;;;13.49;85.41;100357.56;4940429;29;20111;-82
2022/11/03 09:13:16;;;;;;;14.63;5.50;;;;;;;13.42;84.67;100343.50;4939690;29;20107;-82
2022/11/03 09:15:46;;;;;;;13.15;4.88;;;;;;;13.46;84.48;100342.97;4940206;29;20047;-80
2022/11/03 09:18:13;;;;;;;15.18;5.30;;;;;;;13.38;84.11;100321.22;4941787;29;20133;-82
2022/11/03 09:20:40;;;;;;;13.20;5.70;;;;;;;13.48;84.44;100327.03;4942478;29;20511;-81
2022/11/03 09:23:07;;;;;;;17.25;5.25;;;;;;;13.49;84.02;100316.31;4940384;29;20126;-80
2022/11/03 09:25:35;;;;;;;17.45;4.57;;;;;;;13.38;84.18;100295.75;4943522;29;20183;-82
2022/11/03 09:28:02;;;;;;;14.02;4.80;;;;;;;13.52;84.46;100302.00;4942162;29;20055;-81
2022/11/03 09:30:28;;;;;;;13.10;4.53;;;;;;;13.49;83.81;100297.94;4944836;29;21344;-84
2022/11/03 09:32:55;;;;;;;18.00;4.70;;;;;;;13.61;83.31;100293.03;4941634;29;20134;-82
2022/11/03 09:35:24;;;;;;;10.40;4.15;;;;;;;13.75;82.46;100292.16;4940727;29;20058;-82
2022/11/03 09:37:53;;;;;;;12.73;4.55;;;;;;;13.67;82.32;100254.66;4939478;29;20088;-83
2022/11/03 09:40:24;;;;;;;13.27;4.25;;;;;;;13.55;82.94;100247.25;4938778;29;20143;-81
2022/11/03 09:42:52;;;;;;;14.77;4.82;;;;;;;13.43;83.95;100245.28;4938751;29;20147;-81
2022/11/03 09:45:19;;;;;;;14.80;4.63;;;;;;;13.27;84.04;100235.78;4936608;29;20051;-81
2022/11/03 09:47:57;;;;;;;8.43;4.70;;;;;;;13.49;83.99;100250.63;4938159;29;20050;-85
2022/11/03 09:50:28;;;;;;;11.95;4.45;;;;;;;13.25;83.77;100211.50;4938273;29;20131;-84
2022/11/03 09:52:58;;;;;;;10.20;4.32;;;;;;;13.27;83.84;100214.75;4938434;29;20047;-83
2022/11/03 09:55:26;;;;;;;9.75;3.70;;;;;;;13.41;83.38;100221.81;4938410;29;20071;-84
2022/11/03 09:57:57;;;;;;;11.23;4.75;;;;;;;13.47;82.34;100226.31;4938245;29;20055;-82
2022/11/03 10:00:27;;;;;;;14.77;4.30;;;;;;;13.28;82.38;100192.72;4936878;29;20051;-82
2022/11/03 10:02:58;;;;;;;12.80;4.57;;;;;;;13.24;82.16;100191.47;4939003;29;20048;-82
2022/11/03 10:05:30;;;;;;;12.77;4.28;;;;;;;13.13;82.37;100174.34;4940550;29;20148;-83
2022/11/03 10:08:00;;;;;;;13.60;4.60;;;;;;;13.22;82.54;100196.94;4935507;29;20061;-81
2022/11/03 10:10:30;;;;;;;11.90;4.35;;;;;;;13.26;82.62;100189.47;4939913;29;20153;-83
2022/11/03 10:13:12;;;;;;;8.82;4.10;;;;;;;13.35;82.83;100191.00;4939891;29;20063;-82
2022/11/03 10:15:40;;;;;;;12.55;4.50;;;;;;;13.58;83.04;100212.72;4942571;29;20048;-82
2022/11/03 10:18:15;;;;;;;13.32;4.57;;;;;;;13.61;82.82;100201.00;4943251;29;20082;-82
2022/11/03 10:20:46;;;;;;;10.63;4.85;;;;;;;13.41;83.15;100194.69;4945768;29;20122;-82
2022/11/03 10:23:16;;;;;;;17.48;4.55;;;;;;;13.44;83.51;100191.72;4948856;29;20051;-80
2022/11/03 10:25:44;;;;;;;10.32;4.00;;;;;;;13.49;82.58;100187.53;4947248;29;20066;-81
2022/11/03 10:28:20;;;;;;;11.95;4.63;;;;;;;13.39;82.76;100176.50;4951549;29;20078;-82
2022/11/03 10:30:55;;;;;;;9.05;4.25;;;;;;;13.38;83.52;100159.09;4936702;29;20071;-81
2022/11/03 10:33:28;;;;;;;8.85;3.80;;;;;;;13.42;83.36;100152.47;4925279;29;20060;-82
2022/11/03 10:35:56;;;;;;;11.25;4.32;;;;;;;13.11;83.77;100123.81;4930094;29;20119;-82
2022/11/03 10:38:27;;;;;;;11.35;4.57;;;;;;;13.11;84.13;100134.31;4942825;29;20156;-81
2022/11/03 10:40:55;;;;;;;14.15;4.75;;;;;;;13.01;84.51;100136.41;4943504;29;20040;-81
2022/11/03 10:43:27;;;;;;;12.95;4.60;;;;;;;12.81;84.69;100103.84;4943086;29;20055;-83
2022/11/03 10:46:10;;;;;;;12.48;4.88;;;;;;;12.82;84.82;100092.34;4942125;29;20055;-82
2022/11/03 10:48:37;;;;;;;13.13;4.82;;;;;;;12.94;84.47;100094.31;4939773;28;20114;-83
2022/11/03 10:51:09;;;;;;;11.88;4.15;;;;;;;13.05;84.29;100092.22;4942910;29;20083;-81
2022/11/03 10:53:47;;;;;;;9.85;4.18;;;;;;;12.93;83.81;100074.31;4946895;29;20062;-81
2022/11/03 10:56:14;;;;;;;11.57;4.45;;;;;;;12.85;83.63;100057.84;4944898;29;20047;-81
2022/11/03 10:58:42;;;;;;;13.48;4.32;;;;;;;12.99;83.58;100070.13;4940123;29;20090;-81
2022/11/03 11:01:13;;;;;;;10.60;4.30;;;;;;;12.91;84.04;100052.66;4946531;29;20083;-82
2022/11/03 11:03:47;;;;;;;12.15;4.93;;;;;;;12.88;83.94;100053.03;4945827;29;20043;-80
2022/11/03 11:06:21;;;;;;;13.77;4.40;;;;;;;13.01;83.72;100083.06;4944466;29;20044;-82
2022/11/03 11:08:52;;;;;;;8.82;4.20;;;;;;;13.07;83.75;100079.72;4955126;28;20048;-81
2022/11/03 11:11:22;;;;;;;9.30;4.37;;;;;;;12.98;83.52;100065.88;4944472;29;20052;-81
2022/11/03 11:14:35;;;;;;;10.70;4.63;;;;;;;12.91;83.61;100057.09;4944232;29;20119;-80
2022/11/03 11:17:16;;;;;;;7.53;3.90;;;;;;;12.98;84.07;100062.44;4953813;29;20312;-79
2022/11/03 11:20:32;;;;;;;11.70;4.38;;;;;;;13.05;84.10;100068.56;4954448;28;20168;-80
2022/11/03 11:23:48;;;;;;;9.52;4.03;;;;;;;13.18;83.78;100082.69;4950157;29;20111;-78
2022/11/03 11:26:35;;;;;;;16.05;4.10;;;;;;;13.24;83.10;100071.41;4940849;29;20071;-79
2022/11/03 11:29:35;;;;;;;11.40;4.25;;;;;;;13.36;82.94;100077.00;4948645;28;20105;-79
2022/11/03 11:32:49;;;;;;;12.00;5.00;;;;;;;13.33;82.90;100072.13;4925944;29;20055;-78
2022/11/03 11:35:20;;;;;;;15.93;4.00;;;;;;;13.49;82.66;100061.38;4939380;29;20063;-79
2022/11/03 11:37:50;;;;;;;9.45;4.07;;;;;;;13.40;82.49;100070.38;4938053;29;20043;-79
2022/11/03 11:40:58;;;;;;;9.85;4.13;;;;;;;13.42;83.00;100068.38;4941809;29;20186;-83
2022/11/03 11:43:29;;;;;;;10.40;3.80;;;;;;;13.32;82.73;100054.72;4942164;29;20078;-81
2022/11/03 11:46:24;;;;;;;12.23;4.22;;;;;;;13.28;82.95;100042.97;4943225;29;20051;-81
2022/11/03 11:49:22;;;;;;;10.32;4.13;;;;;;;13.23;83.65;100040.13;4942784;29;20103;-81
2022/11/03 11:51:52;;;;;;;10.52;4.50;;;;;;;13.03;83.66;100039.06;4944411;29;20050;-80
2022/11/03 11:54:24;;;;;;;12.05;4.28;;;;;;;12.93;83.38;100002.59;4940861;29;20058;-79